^^
NorthLandsweather Station Historical Data
Daily Summary for February 12, 2019 Units:  Both    English   Metric
Daily Weekly Monthly Yearly Custom
  High: Low: Average:
Temperature: 23.8 °F /  -4.6 °C 18.5 °F /  -7.5 °C 21 °F /  -6.1 °C
Dew Point: 20.8 °F /  -6.2 °C 15.3 °F /  -9.3 °C 18.2 °F /  -7.7 °C
Humidity: 91% 86% 89%
Wind Speed: 9.2mph /  14.8km/h - 2.8mph /  4.5km/h
Wind Gust: 4.6mph /  7.4km/h - -
Wind- - SE
Pressure: 30.11 in /  1019.5 hPa 29.72 in /  1006.3 hPa -
Precipitation: 0.48 in /  12.19 mm    
Historical Graphs
 
 
Tabular Data for February 12, 2019
Time Temperature Dew Point Pressure Wind Wind Speed Wind Gust Humidity Rainfall Rate (Hourly) solar
00:04 21.8 °F /  -5.7 °C 19.3 °F /  -7.1 °C 30.10in /  1019.2hPa ENE 2.3mph /  3.7km/h   90% 0.00in /  0mm 143.10 W/m2
00:09 21.7 °F /  -5.7 °C 19.2 °F /  -7.1 °C 30.10in /  1019.2hPa Calm     90% 0.00in /  0mm 143.10 W/m2
00:14 21.7 °F /  -5.7 °C 19.2 °F /  -7.1 °C 30.10in /  1019.2hPa Calm     90% 0.00in /  0mm 143.10 W/m2
00:19 21.6 °F /  -5.8 °C 19.1 °F /  -7.2 °C 30.10in /  1019.2hPa Calm     90% 0.00in /  0mm 143.10 W/m2
00:24 21.6 °F /  -5.8 °C 19.1 °F /  -7.2 °C 30.10in /  1019.2hPa NE 3.5mph /  5.6km/h 1.3mph /  2.1km/h 90% 0.00in /  0mm 143.10 W/m2
00:29 21.6 °F /  -5.8 °C 19.1 °F /  -7.2 °C 30.10in /  1019.2hPa ENE 2.3mph /  3.7km/h 1.8mph /  2.9km/h 90% 0.00in /  0mm 143.10 W/m2
00:34 21.5 °F /  -5.8 °C 19.0 °F /  -7.2 °C 30.11in /  1019.5hPa ENE 1.2mph /  1.9km/h 0.5mph /  0.8km/h 90% 0.00in /  0mm 143.10 W/m2
00:39 21.6 °F /  -5.8 °C 19.1 °F /  -7.2 °C 30.11in /  1019.5hPa NE 3.5mph /  5.6km/h 1.8mph /  2.9km/h 90% 0.00in /  0mm 143.10 W/m2
00:44 21.5 °F /  -5.8 °C 19.0 °F /  -7.2 °C 30.11in /  1019.5hPa NE 1.2mph /  1.9km/h 0.3mph /  0.5km/h 90% 0.00in /  0mm 143.10 W/m2
00:49 21.5 °F /  -5.8 °C 19.0 °F /  -7.2 °C 30.10in /  1019.2hPa ENE 2.3mph /  3.7km/h 1.1mph /  1.8km/h 90% 0.00in /  0mm 143.10 W/m2
00:54 21.5 °F /  -5.8 °C 19.0 °F /  -7.2 °C 30.11in /  1019.5hPa ENE 1.2mph /  1.9km/h   90% 0.00in /  0mm 143.10 W/m2
00:59 21.5 °F /  -5.8 °C 19.0 °F /  -7.2 °C 30.10in /  1019.2hPa Calm     90% 0.00in /  0mm 143.10 W/m2
01:04 21.5 °F /  -5.8 °C 19.0 °F /  -7.2 °C 30.10in /  1019.2hPa Calm     90% 0.00in /  0mm 143.10 W/m2
01:09 21.5 °F /  -5.8 °C 19.0 °F /  -7.2 °C 30.10in /  1019.2hPa Calm     90% 0.00in /  0mm 143.10 W/m2
01:14 21.5 °F /  -5.8 °C 19.0 °F /  -7.2 °C 30.09in /  1018.8hPa ENE 2.3mph /  3.7km/h 0.3mph /  0.5km/h 90% 0.00in /  0mm 143.10 W/m2
01:19 21.5 °F /  -5.8 °C 19.0 °F /  -7.2 °C 30.09in /  1018.8hPa ENE 1.2mph /  1.9km/h 0.8mph /  1.3km/h 90% 0.00in /  0mm 143.10 W/m2
01:24 21.5 °F /  -5.8 °C 19.3 °F /  -7.1 °C 30.09in /  1018.8hPa ENE 2.3mph /  3.7km/h 0.2mph /  0.3km/h 91% 0.00in /  0mm 143.10 W/m2
01:29 21.4 °F /  -5.9 °C 19.2 °F /  -7.1 °C 30.08in /  1018.5hPa ENE 3.5mph /  5.6km/h 1.1mph /  1.8km/h 91% 0.00in /  0mm 143.10 W/m2
01:34 21.4 °F /  -5.9 °C 19.2 °F /  -7.1 °C 30.08in /  1018.5hPa Calm     91% 0.00in /  0mm 143.10 W/m2
01:39 21.4 °F /  -5.9 °C 19.2 °F /  -7.1 °C 30.08in /  1018.5hPa Calm     91% 0.00in /  0mm 143.10 W/m2
01:44 21.3 °F /  -5.9 °C 19.1 °F /  -7.2 °C 30.08in /  1018.5hPa Calm     91% 0.00in /  0mm 143.10 W/m2
01:49 21.3 °F /  -5.9 °C 19.1 °F /  -7.2 °C 30.08in /  1018.5hPa Calm     91% 0.00in /  0mm 143.10 W/m2
01:54 21.3 °F /  -5.9 °C 19.1 °F /  -7.2 °C 30.07in /  1018.2hPa Calm     91% 0.00in /  0mm 143.10 W/m2
01:59 21.4 °F /  -5.9 °C 19.2 °F /  -7.1 °C 30.07in /  1018.2hPa Calm     91% 0.00in /  0mm 143.10 W/m2
02:04 21.4 °F /  -5.9 °C 19.2 °F /  -7.1 °C 30.07in /  1018.2hPa Calm     91% 0.00in /  0mm 143.10 W/m2
02:09 21.4 °F /  -5.9 °C 19.2 °F /  -7.1 °C 30.06in /  1017.8hPa Calm     91% 0.00in /  0mm 143.10 W/m2
02:14 21.4 °F /  -5.9 °C 19.2 °F /  -7.1 °C 30.06in /  1017.8hPa Calm     91% 0.01in /  0.25mm 143.10 W/m2
02:19 21.4 °F /  -5.9 °C 19.2 °F /  -7.1 °C 30.05in /  1017.5hPa Calm     91% 0.01in /  0.25mm 143.10 W/m2
02:24 21.4 °F /  -5.9 °C 19.2 °F /  -7.1 °C 30.05in /  1017.5hPa North 2.3mph /  3.7km/h 1.4mph /  2.3km/h 91% 0.01in /  0.25mm 143.10 W/m2
02:29 21.4 °F /  -5.9 °C 19.2 °F /  -7.1 °C 30.05in /  1017.5hPa North 1.2mph /  1.9km/h   91% 0.01in /  0.25mm 143.10 W/m2
02:34 21.3 °F /  -5.9 °C 19.1 °F /  -7.2 °C 30.04in /  1017.2hPa NE 1.2mph /  1.9km/h   91% 0.01in /  0.25mm 143.10 W/m2
02:39 21.3 °F /  -5.9 °C 19.1 °F /  -7.2 °C 30.04in /  1017.2hPa NE 2.3mph /  3.7km/h   91% 0.01in /  0.25mm 143.10 W/m2
02:44 21.3 °F /  -5.9 °C 19.1 °F /  -7.2 °C 30.03in /  1016.8hPa Calm     91% 0.01in /  0.25mm 143.10 W/m2
02:49 21.3 °F /  -5.9 °C 19.1 °F /  -7.2 °C 30.03in /  1016.8hPa NE 2.3mph /  3.7km/h 1.2mph /  1.9km/h 91% 0.01in /  0.25mm 143.10 W/m2
02:54 21.3 °F /  -5.9 °C 19.1 °F /  -7.2 °C 30.02in /  1016.5hPa North 1.2mph /  1.9km/h 1.8mph /  2.9km/h 91% 0.02in /  0.51mm 143.10 W/m2
02:59 21.3 °F /  -5.9 °C 19.1 °F /  -7.2 °C 30.02in /  1016.5hPa North 1.2mph /  1.9km/h 0.2mph /  0.3km/h 91% 0.02in /  0.51mm 143.10 W/m2
03:04 21.3 °F /  -5.9 °C 18.8 °F /  -7.3 °C 30.02in /  1016.5hPa North 2.0mph /  3.2km/h 0.7mph /  1.1km/h 90% 0.02in /  0.51mm 143.10 W/m2
03:09 21.2 °F /  -6 °C 19.0 °F /  -7.2 °C 30.02in /  1016.5hPa NNW 3.5mph /  5.6km/h   91% 0.02in /  0.51mm 143.10 W/m2
03:14 21.2 °F /  -6 °C 19.0 °F /  -7.2 °C 30.02in /  1016.5hPa Calm     91% 0.01in /  0.25mm 143.10 W/m2
03:19 21.2 °F /  -6 °C 19.0 °F /  -7.2 °C 30.02in /  1016.5hPa NNW 2.3mph /  3.7km/h 1.0mph /  1.6km/h 91% 0.01in /  0.25mm 143.10 W/m2
03:24 21.1 °F /  -6.1 °C 18.9 °F /  -7.3 °C 30.01in /  1016.1hPa NE 1.2mph /  1.9km/h   91% 0.01in /  0.25mm 143.10 W/m2
03:29 21.1 °F /  -6.1 °C 18.6 °F /  -7.4 °C 30.00in /  1015.8hPa NE 2.3mph /  3.7km/h 1.1mph /  1.8km/h 90% 0.01in /  0.25mm 143.10 W/m2
03:34 21.0 °F /  -6.1 °C 18.5 °F /  -7.5 °C 30.00in /  1015.8hPa NNE 2.3mph /  3.7km/h 1.3mph /  2.1km/h 90% 0.02in /  0.51mm 143.10 W/m2
03:39 21.0 °F /  -6.1 °C 18.5 °F /  -7.5 °C 30.00in /  1015.8hPa ENE 3.5mph /  5.6km/h 1.0mph /  1.6km/h 90% 0.02in /  0.51mm 143.10 W/m2
03:44 21.1 °F /  -6.1 °C 18.9 °F /  -7.3 °C 29.99in /  1015.5hPa NNE 3.5mph /  5.6km/h 1.0mph /  1.6km/h 91% 0.02in /  0.51mm 143.10 W/m2
03:49 21.0 °F /  -6.1 °C 18.8 °F /  -7.3 °C 29.99in /  1015.5hPa ENE 2.3mph /  3.7km/h 0.7mph /  1.1km/h 91% 0.02in /  0.51mm 143.10 W/m2
03:54 21.0 °F /  -6.1 °C 18.5 °F /  -7.5 °C 29.98in /  1015.1hPa ENE 2.3mph /  3.7km/h 0.7mph /  1.1km/h 90% 0.01in /  0.25mm 143.10 W/m2
03:59 20.9 °F /  -6.2 °C 18.7 °F /  -7.4 °C 29.98in /  1015.1hPa ENE 2.3mph /  3.7km/h 0.6mph /  1km/h 91% 0.01in /  0.25mm 143.10 W/m2
04:04 20.9 °F /  -6.2 °C 18.7 °F /  -7.4 °C 29.98in /  1015.1hPa NE 1.2mph /  1.9km/h 0.1mph /  0.2km/h 91% 0.01in /  0.25mm 143.10 W/m2
04:09 20.8 °F /  -6.2 °C 18.6 °F /  -7.4 °C 29.98in /  1015.1hPa NE 1.2mph /  1.9km/h 0.8mph /  1.3km/h 91% 0.01in /  0.25mm 143.10 W/m2
04:14 20.8 °F /  -6.2 °C 18.6 °F /  -7.4 °C 29.98in /  1015.1hPa NNE 2.3mph /  3.7km/h 0.5mph /  0.8km/h 91% 0.02in /  0.51mm 143.10 W/m2
04:19 20.9 °F /  -6.2 °C 18.7 °F /  -7.4 °C 29.97in /  1014.8hPa NNE 1.2mph /  1.9km/h 0.6mph /  1km/h 91% 0.02in /  0.51mm 143.10 W/m2
04:24 20.8 °F /  -6.2 °C 18.6 °F /  -7.4 °C 29.97in /  1014.8hPa NNE 1.2mph /  1.9km/h 0.8mph /  1.3km/h 91% 0.02in /  0.51mm 143.10 W/m2
04:29 20.8 °F /  -6.2 °C 18.6 °F /  -7.4 °C 29.97in /  1014.8hPa NNE 3.5mph /  5.6km/h   91% 0.02in /  0.51mm 143.10 W/m2
04:34 20.9 °F /  -6.2 °C 18.7 °F /  -7.4 °C 29.97in /  1014.8hPa NNE 2.3mph /  3.7km/h 1.2mph /  1.9km/h 91% 0.01in /  0.25mm 143.10 W/m2
04:39 20.9 °F /  -6.2 °C 18.7 °F /  -7.4 °C 29.97in /  1014.8hPa NNE 2.3mph /  3.7km/h 0.4mph /  0.6km/h 91% 0.01in /  0.25mm 143.10 W/m2
04:44 20.9 °F /  -6.2 °C 18.7 °F /  -7.4 °C 29.97in /  1014.8hPa NNE 2.3mph /  3.7km/h 0.1mph /  0.2km/h 91% 0.02in /  0.51mm 143.10 W/m2
04:49 21.0 °F /  -6.1 °C 18.8 °F /  -7.3 °C 29.97in /  1014.8hPa Calm   0.2mph /  0.3km/h 91% 0.02in /  0.51mm 143.10 W/m2
04:54 21.1 °F /  -6.1 °C 18.9 °F /  -7.3 °C 29.97in /  1014.8hPa North 2.3mph /  3.7km/h 1.4mph /  2.3km/h 91% 0.02in /  0.51mm 143.10 W/m2
04:59 21.1 °F /  -6.1 °C 18.6 °F /  -7.4 °C 29.97in /  1014.8hPa NNE 2.3mph /  3.7km/h 0.4mph /  0.6km/h 90% 0.03in /  0.76mm 143.10 W/m2
05:04 21.1 °F /  -6.1 °C 18.6 °F /  -7.4 °C 29.96in /  1014.4hPa North 3.5mph /  5.6km/h 0.3mph /  0.5km/h 90% 0.03in /  0.76mm 143.10 W/m2
05:09 21.1 °F /  -6.1 °C 18.6 °F /  -7.4 °C 29.96in /  1014.4hPa NNE 1.2mph /  1.9km/h 1.2mph /  1.9km/h 90% 0.03in /  0.76mm 143.10 W/m2
05:14 21.2 °F /  -6 °C 18.7 °F /  -7.4 °C 29.96in /  1014.4hPa Calm     90% 0.03in /  0.76mm 143.10 W/m2
05:19 21.1 °F /  -6.1 °C 18.6 °F /  -7.4 °C 29.95in /  1014.1hPa Calm     90% 0.03in /  0.76mm 143.10 W/m2
05:24 21.2 °F /  -6 °C 18.7 °F /  -7.4 °C 29.95in /  1014.1hPa Calm     90% 0.03in /  0.76mm 143.10 W/m2
05:29 21.2 °F /  -6 °C 18.7 °F /  -7.4 °C 29.95in /  1014.1hPa Calm     90% 0.03in /  0.76mm 143.10 W/m2
05:34 21.1 °F /  -6.1 °C 18.6 °F /  -7.4 °C 29.95in /  1014.1hPa NE 2.3mph /  3.7km/h 0.8mph /  1.3km/h 90% 0.04in /  1.02mm 143.10 W/m2
05:39 21.1 °F /  -6.1 °C 18.6 °F /  -7.4 °C 29.95in /  1014.1hPa North 2.3mph /  3.7km/h   90% 0.04in /  1.02mm 143.10 W/m2
05:44 21.0 °F /  -6.1 °C 18.3 °F /  -7.6 °C 29.95in /  1014.1hPa North 5.8mph /  9.3km/h 0.1mph /  0.2km/h 89% 0.03in /  0.76mm 143.10 W/m2
05:49 20.9 °F /  -6.2 °C 18.2 °F /  -7.7 °C 29.95in /  1014.1hPa Calm     89% 0.04in /  1.02mm 143.10 W/m2
05:54 20.9 °F /  -6.2 °C 18.4 °F /  -7.6 °C 29.94in /  1013.8hPa NNE 2.3mph /  3.7km/h   90% 0.04in /  1.02mm 143.10 W/m2
05:59 21.0 °F /  -6.1 °C 18.5 °F /  -7.5 °C 29.94in /  1013.8hPa NNE 2.3mph /  3.7km/h 0.7mph /  1.1km/h 90% 0.04in /  1.02mm 143.10 W/m2
06:04 21.0 °F /  -6.1 °C 18.3 °F /  -7.6 °C 29.94in /  1013.8hPa North 2.3mph /  3.7km/h 0.4mph /  0.6km/h 89% 0.04in /  1.02mm 143.10 W/m2
06:09 20.7 °F /  -6.3 °C 18.0 °F /  -7.8 °C 29.94in /  1013.8hPa Calm     89% 0.04in /  1.02mm 143.10 W/m2
06:14 20.4 °F /  -6.4 °C 17.7 °F /  -7.9 °C 29.93in /  1013.4hPa NNE 2.3mph /  3.7km/h 0.1mph /  0.2km/h 89% 0.04in /  1.02mm 143.10 W/m2
06:19 20.3 °F /  -6.5 °C 17.6 °F /  -8 °C 29.93in /  1013.4hPa NNE 5.0mph /  8km/h 1.3mph /  2.1km/h 89% 0.04in /  1.02mm 143.10 W/m2
06:24 20.2 °F /  -6.6 °C 17.5 °F /  -8.1 °C 29.93in /  1013.4hPa NNE 2.3mph /  3.7km/h 1.3mph /  2.1km/h 89% 0.05in /  1.27mm 143.10 W/m2
06:29 20.0 °F /  -6.7 °C 17.3 °F /  -8.2 °C 29.93in /  1013.4hPa NW 4.6mph /  7.4km/h 0.9mph /  1.4km/h 89% 0.05in /  1.27mm 143.10 W/m2
06:34 19.8 °F /  -6.8 °C 17.1 °F /  -8.3 °C 29.92in /  1013.1hPa NE 2.3mph /  3.7km/h 1.0mph /  1.6km/h 89% 0.05in /  1.27mm 143.10 W/m2
06:39 19.7 °F /  -6.8 °C 17.0 °F /  -8.3 °C 29.92in /  1013.1hPa North 3.0mph /  4.8km/h 3.2mph /  5.1km/h 89% 0.05in /  1.27mm 143.10 W/m2
06:44 19.7 °F /  -6.8 °C 17.2 °F /  -8.2 °C 29.92in /  1013.1hPa NNE 2.3mph /  3.7km/h 0.5mph /  0.8km/h 90% 0.06in /  1.52mm 143.10 W/m2
06:49 19.7 °F /  -6.8 °C 17.2 °F /  -8.2 °C 29.92in /  1013.1hPa Calm     90% 0.05in /  1.27mm 143.10 W/m2
06:54 19.8 °F /  -6.8 °C 17.3 °F /  -8.2 °C 29.91in /  1012.8hPa North 5.0mph /  8km/h 1.7mph /  2.7km/h 90% 0.05in /  1.27mm 143.10 W/m2
06:59 19.7 °F /  -6.8 °C 17.2 °F /  -8.2 °C 29.91in /  1012.8hPa NE 2.3mph /  3.7km/h   90% 0.05in /  1.27mm 143.10 W/m2
07:04 19.7 °F /  -6.8 °C 17.2 °F /  -8.2 °C 29.91in /  1012.8hPa North 4.0mph /  6.4km/h 1.7mph /  2.7km/h 90% 0.05in /  1.27mm 143.10 W/m2
07:09 19.7 °F /  -6.8 °C 17.2 °F /  -8.2 °C 29.91in /  1012.8hPa NNE 2.3mph /  3.7km/h 1.9mph /  3.1km/h 90% 0.05in /  1.27mm 143.10 W/m2
07:14 19.8 °F /  -6.8 °C 17.3 °F /  -8.2 °C 29.91in /  1012.8hPa Calm   0.4mph /  0.6km/h 90% 0.05in /  1.27mm 143.10 W/m2
07:19 19.7 °F /  -6.8 °C 17.0 °F /  -8.3 °C 29.91in /  1012.8hPa NNE 2.0mph /  3.2km/h 1.2mph /  1.9km/h 89% 0.05in /  1.27mm 143.10 W/m2
07:24 19.5 °F /  -6.9 °C 16.8 °F /  -8.4 °C 29.91in /  1012.8hPa NE 1.2mph /  1.9km/h 0.2mph /  0.3km/h 89% 0.05in /  1.27mm 143.10 W/m2
07:29 19.5 °F /  -6.9 °C 16.8 °F /  -8.4 °C 29.91in /  1012.8hPa West 2.3mph /  3.7km/h 0.6mph /  1km/h 89% 0.05in /  1.27mm 143.10 W/m2
07:34 19.5 °F /  -6.9 °C 16.8 °F /  -8.4 °C 29.91in /  1012.8hPa NE 2.3mph /  3.7km/h 0.5mph /  0.8km/h 89% 0.05in /  1.27mm 143.10 W/m2
07:39 19.6 °F /  -6.9 °C 16.9 °F /  -8.4 °C 29.91in /  1012.8hPa NE 2.0mph /  3.2km/h 0.7mph /  1.1km/h 89% 0.05in /  1.27mm 143.10 W/m2
07:44 19.5 °F /  -6.9 °C 16.8 °F /  -8.4 °C 29.91in /  1012.8hPa NNE 3.5mph /  5.6km/h 0.8mph /  1.3km/h 89% 0.05in /  1.27mm 143.10 W/m2
07:49 19.5 °F /  -6.9 °C 16.8 °F /  -8.4 °C 29.91in /  1012.8hPa Calm     89% 0.05in /  1.27mm 143.10 W/m2
07:54 19.6 °F /  -6.9 °C 16.9 °F /  -8.4 °C 29.91in /  1012.8hPa NNE 2.3mph /  3.7km/h 1.8mph /  2.9km/h 89% 0.06in /  1.52mm 143.10 W/m2
07:59 19.7 °F /  -6.8 °C 17.0 °F /  -8.3 °C 29.90in /  1012.4hPa East 3.5mph /  5.6km/h 1.1mph /  1.8km/h 89% 0.05in /  1.27mm 143.10 W/m2
08:04 19.6 °F /  -6.9 °C 16.9 °F /  -8.4 °C 29.90in /  1012.4hPa NNE 2.3mph /  3.7km/h   89% 0.05in /  1.27mm 143.10 W/m2
08:09 19.5 °F /  -6.9 °C 16.8 °F /  -8.4 °C 29.90in /  1012.4hPa NNE 2.0mph /  3.2km/h 0.3mph /  0.5km/h 89% 0.06in /  1.52mm 143.10 W/m2
08:14 19.5 °F /  -6.9 °C 16.8 °F /  -8.4 °C 29.90in /  1012.4hPa NNE 2.3mph /  3.7km/h 0.7mph /  1.1km/h 89% 0.05in /  1.27mm 143.10 W/m2
08:19 19.4 °F /  -7 °C 16.9 °F /  -8.4 °C 29.89in /  1012.1hPa NNE 3.5mph /  5.6km/h 1.1mph /  1.8km/h 90% 0.06in /  1.52mm 143.10 W/m2
08:24 19.4 °F /  -7 °C 16.9 °F /  -8.4 °C 29.89in /  1012.1hPa NNE 4.6mph /  7.4km/h 2.3mph /  3.7km/h 90% 0.05in /  1.27mm 143.10 W/m2
08:29 19.4 °F /  -7 °C 16.9 °F /  -8.4 °C 29.89in /  1012.1hPa NNE 4.6mph /  7.4km/h 1.8mph /  2.9km/h 90% 0.05in /  1.27mm 143.10 W/m2
08:34 19.4 °F /  -7 °C 16.9 °F /  -8.4 °C 29.89in /  1012.1hPa NNE 5.0mph /  8km/h 1.6mph /  2.6km/h 90% 0.05in /  1.27mm 143.10 W/m2
08:39 19.4 °F /  -7 °C 16.9 °F /  -8.4 °C 29.88in /  1011.7hPa ENE 2.3mph /  3.7km/h 0.2mph /  0.3km/h 90% 0.05in /  1.27mm 143.10 W/m2
08:44 19.5 °F /  -6.9 °C 17.0 °F /  -8.3 °C 29.88in /  1011.7hPa NNE 3.5mph /  5.6km/h 2.8mph /  4.5km/h 90% 0.05in /  1.27mm 143.10 W/m2
08:49 19.5 °F /  -6.9 °C 17.0 °F /  -8.3 °C 29.88in /  1011.7hPa ENE 1.2mph /  1.9km/h   90% 0.05in /  1.27mm 143.10 W/m2
08:54 19.4 °F /  -7 °C 16.9 °F /  -8.4 °C 29.88in /  1011.7hPa NNE 3.5mph /  5.6km/h 1.2mph /  1.9km/h 90% 0.04in /  1.02mm 143.10 W/m2
08:59 19.3 °F /  -7.1 °C 16.8 °F /  -8.4 °C 29.87in /  1011.4hPa WNW 3.5mph /  5.6km/h 0.3mph /  0.5km/h 90% 0.05in /  1.27mm 143.10 W/m2
09:04 19.3 °F /  -7.1 °C 16.8 °F /  -8.4 °C 29.87in /  1011.4hPa NE 3.5mph /  5.6km/h 1.8mph /  2.9km/h 90% 0.06in /  1.52mm 143.10 W/m2
09:09 19.4 °F /  -7 °C 16.9 °F /  -8.4 °C 29.87in /  1011.4hPa NE 2.3mph /  3.7km/h 0.2mph /  0.3km/h 90% 0.05in /  1.27mm 143.10 W/m2
09:14 19.4 °F /  -7 °C 16.9 °F /  -8.4 °C 29.87in /  1011.4hPa WNW 3.5mph /  5.6km/h 0.4mph /  0.6km/h 90% 0.05in /  1.27mm 143.10 W/m2
09:19 19.5 °F /  -6.9 °C 17.0 °F /  -8.3 °C 29.87in /  1011.4hPa North 3.5mph /  5.6km/h 0.2mph /  0.3km/h 90% 0.05in /  1.27mm 143.10 W/m2
09:24 19.7 °F /  -6.8 °C 17.2 °F /  -8.2 °C 29.87in /  1011.4hPa ENE 1.2mph /  1.9km/h   90% 0.06in /  1.52mm 143.10 W/m2
09:29 19.8 °F /  -6.8 °C 17.3 °F /  -8.2 °C 29.87in /  1011.4hPa Calm     90% 0.06in /  1.52mm 143.10 W/m2
09:34 20.0 °F /  -6.7 °C 17.5 °F /  -8.1 °C 29.87in /  1011.4hPa ENE 1.2mph /  1.9km/h 0.1mph /  0.2km/h 90% 0.05in /  1.27mm 143.10 W/m2
09:39 20.1 °F /  -6.6 °C 17.6 °F /  -8 °C 29.87in /  1011.4hPa NNW 3.5mph /  5.6km/h 0.8mph /  1.3km/h 90% 0.06in /  1.52mm 143.10 W/m2
09:44 20.2 °F /  -6.6 °C 17.5 °F /  -8.1 °C 29.87in /  1011.4hPa North 3.5mph /  5.6km/h   89% 0.05in /  1.27mm 143.10 W/m2
09:49 20.4 °F /  -6.4 °C 17.7 °F /  -7.9 °C 29.87in /  1011.4hPa North 2.3mph /  3.7km/h 0.6mph /  1km/h 89% 0.06in /  1.52mm 143.10 W/m2
09:54 20.6 °F /  -6.3 °C 17.9 °F /  -7.8 °C 29.87in /  1011.4hPa WNW 1.2mph /  1.9km/h 0.9mph /  1.4km/h 89% 0.06in /  1.52mm 143.10 W/m2
09:59 20.8 °F /  -6.2 °C 18.1 °F /  -7.7 °C 29.86in /  1011.1hPa North 3.5mph /  5.6km/h   89% 0.06in /  1.52mm 143.10 W/m2
10:04 20.9 °F /  -6.2 °C 17.9 °F /  -7.8 °C 29.86in /  1011.1hPa Calm     88% 0.06in /  1.52mm 143.10 W/m2
10:09 21.2 °F /  -6 °C 18.2 °F /  -7.7 °C 29.86in /  1011.1hPa North 2.3mph /  3.7km/h 0.4mph /  0.6km/h 88% 0.06in /  1.52mm 143.10 W/m2
10:14 21.3 °F /  -5.9 °C 18.3 °F /  -7.6 °C 29.86in /  1011.1hPa NNW 2.3mph /  3.7km/h 0.3mph /  0.5km/h 88% 0.06in /  1.52mm 143.10 W/m2
10:19 21.4 °F /  -5.9 °C 18.4 °F /  -7.6 °C 29.86in /  1011.1hPa North 1.0mph /  1.6km/h 0.4mph /  0.6km/h 88% 0.06in /  1.52mm 143.10 W/m2
10:24 21.5 °F /  -5.8 °C 18.5 °F /  -7.5 °C 29.86in /  1011.1hPa NE 5.8mph /  9.3km/h 0.8mph /  1.3km/h 88% 0.06in /  1.52mm 143.10 W/m2
10:29 21.4 °F /  -5.9 °C 18.1 °F /  -7.7 °C 29.86in /  1011.1hPa NNE 2.0mph /  3.2km/h   87% 0.06in /  1.52mm 143.10 W/m2
10:34 21.3 °F /  -5.9 °C 18.3 °F /  -7.6 °C 29.85in /  1010.7hPa WSW 1.2mph /  1.9km/h   88% 0.06in /  1.52mm 143.10 W/m2
10:39 21.4 °F /  -5.9 °C 18.4 °F /  -7.6 °C 29.85in /  1010.7hPa NE 3.5mph /  5.6km/h 0.4mph /  0.6km/h 88% 0.06in /  1.52mm 143.10 W/m2
10:44 21.2 °F /  -6 °C 17.9 °F /  -7.8 °C 29.85in /  1010.7hPa ENE 2.0mph /  3.2km/h 1.5mph /  2.4km/h 87% 0.06in /  1.52mm 143.10 W/m2
10:49 21.2 °F /  -6 °C 18.2 °F /  -7.7 °C 29.85in /  1010.7hPa Calm     88% 0.06in /  1.52mm 143.10 W/m2
10:54 21.3 °F /  -5.9 °C 18.3 °F /  -7.6 °C 29.85in /  1010.7hPa Calm   0.3mph /  0.5km/h 88% 0.06in /  1.52mm 143.10 W/m2
10:59 21.4 °F /  -5.9 °C 18.4 °F /  -7.6 °C 29.84in /  1010.4hPa NE 3.5mph /  5.6km/h 0.5mph /  0.8km/h 88% 0.05in /  1.27mm 143.10 W/m2
11:04 21.6 °F /  -5.8 °C 18.6 °F /  -7.4 °C 29.84in /  1010.4hPa NE 3.5mph /  5.6km/h 2.2mph /  3.5km/h 88% 0.05in /  1.27mm 143.10 W/m2
11:09 21.5 °F /  -5.8 °C 18.2 °F /  -7.7 °C 29.84in /  1010.4hPa NNE 5.8mph /  9.3km/h 2.2mph /  3.5km/h 87% 0.05in /  1.27mm 143.10 W/m2
11:14 21.3 °F /  -5.9 °C 18.0 °F /  -7.8 °C 29.84in /  1010.4hPa NE 2.3mph /  3.7km/h 1.2mph /  1.9km/h 87% 0.05in /  1.27mm 143.10 W/m2
11:19 21.2 °F /  -6 °C 18.2 °F /  -7.7 °C 29.83in /  1010hPa NNE 4.6mph /  7.4km/h 0.1mph /  0.2km/h 88% 0.04in /  1.02mm 143.10 W/m2
11:24 21.3 °F /  -5.9 °C 18.3 °F /  -7.6 °C 29.83in /  1010hPa North 2.3mph /  3.7km/h 1.5mph /  2.4km/h 88% 0.04in /  1.02mm 143.10 W/m2
11:29 21.5 °F /  -5.8 °C 18.5 °F /  -7.5 °C 29.83in /  1010hPa North 3.5mph /  5.6km/h 1.1mph /  1.8km/h 88% 0.04in /  1.02mm 143.10 W/m2
11:34 21.5 °F /  -5.8 °C 18.2 °F /  -7.7 °C 29.82in /  1009.7hPa ENE 2.3mph /  3.7km/h 0.4mph /  0.6km/h 87% 0.04in /  1.02mm 143.10 W/m2
11:39 21.4 °F /  -5.9 °C 18.4 °F /  -7.6 °C 29.82in /  1009.7hPa North 3.5mph /  5.6km/h 0.7mph /  1.1km/h 88% 0.03in /  0.76mm 143.10 W/m2
11:44 21.5 °F /  -5.8 °C 18.5 °F /  -7.5 °C 29.82in /  1009.7hPa NNE 2.3mph /  3.7km/h 2.4mph /  3.9km/h 88% 0.03in /  0.76mm 143.10 W/m2
11:49 21.6 °F /  -5.8 °C 18.6 °F /  -7.4 °C 29.82in /  1009.7hPa North 3.0mph /  4.8km/h 1.2mph /  1.9km/h 88% 0.02in /  0.51mm 143.10 W/m2
11:54 21.5 °F /  -5.8 °C 18.2 °F /  -7.7 °C 29.82in /  1009.7hPa ENE 6.9mph /  11.1km/h 2.3mph /  3.7km/h 87% 0.02in /  0.51mm 143.10 W/m2
11:59 21.3 °F /  -5.9 °C 18.0 °F /  -7.8 °C 29.81in /  1009.4hPa South 3.5mph /  5.6km/h 1.6mph /  2.6km/h 87% 0.02in /  0.51mm 143.10 W/m2
12:04 21.2 °F /  -6 °C 17.9 °F /  -7.8 °C 29.81in /  1009.4hPa NE 1.2mph /  1.9km/h 0.2mph /  0.3km/h 87% 0.01in /  0.25mm 143.10 W/m2
12:09 21.1 °F /  -6.1 °C 17.8 °F /  -7.9 °C 29.80in /  1009hPa NE 1.2mph /  1.9km/h   87% 0.01in /  0.25mm 143.10 W/m2
12:14 21.1 °F /  -6.1 °C 18.1 °F /  -7.7 °C 29.80in /  1009hPa NE 2.3mph /  3.7km/h 0.9mph /  1.4km/h 88% 0.01in /  0.25mm 143.10 W/m2
12:19 21.1 °F /  -6.1 °C 18.1 °F /  -7.7 °C 29.80in /  1009hPa NNE 1.2mph /  1.9km/h 0.4mph /  0.6km/h 88% 0.02in /  0.51mm 143.10 W/m2
12:24 21.2 °F /  -6 °C 18.2 °F /  -7.7 °C 29.79in /  1008.7hPa NNE 1.2mph /  1.9km/h 0.5mph /  0.8km/h 88% 0.01in /  0.25mm 143.10 W/m2
12:29 21.4 °F /  -5.9 °C 18.4 °F /  -7.6 °C 29.79in /  1008.7hPa NNE 2.3mph /  3.7km/h 1.5mph /  2.4km/h 88% 0.01in /  0.25mm 143.10 W/m2
12:34 21.5 °F /  -5.8 °C 18.5 °F /  -7.5 °C 29.79in /  1008.7hPa NNW 1.2mph /  1.9km/h   88% 0.01in /  0.25mm 143.10 W/m2
12:39 21.7 °F /  -5.7 °C 18.4 °F /  -7.6 °C 29.78in /  1008.4hPa West 3.5mph /  5.6km/h 0.4mph /  0.6km/h 87% 0.01in /  0.25mm 143.10 W/m2
12:44 21.7 °F /  -5.7 °C 18.4 °F /  -7.6 °C 29.78in /  1008.4hPa SSW 2.3mph /  3.7km/h 0.4mph /  0.6km/h 87% 0.01in /  0.25mm 143.10 W/m2
12:49 21.8 °F /  -5.7 °C 18.5 °F /  -7.5 °C 29.78in /  1008.4hPa East 3.5mph /  5.6km/h 1.4mph /  2.3km/h 87% 0.01in /  0.25mm 143.10 W/m2
12:54 21.8 °F /  -5.7 °C 18.5 °F /  -7.5 °C 29.77in /  1008hPa WNW 3.5mph /  5.6km/h 0.9mph /  1.4km/h 87% 0.01in /  0.25mm 143.10 W/m2
12:59 21.9 °F /  -5.6 °C 18.6 °F /  -7.4 °C 29.77in /  1008hPa NNE 1.2mph /  1.9km/h 0.4mph /  0.6km/h 87% 0.01in /  0.25mm 143.10 W/m2
13:04 21.9 °F /  -5.6 °C 18.6 °F /  -7.4 °C 29.77in /  1008hPa NNE 2.0mph /  3.2km/h 1.2mph /  1.9km/h 87% 0.01in /  0.25mm 143.10 W/m2
13:09 22.2 °F /  -5.4 °C 18.9 °F /  -7.3 °C 29.77in /  1008hPa North 1.2mph /  1.9km/h 0.6mph /  1km/h 87% 0.02in /  0.51mm 143.10 W/m2
13:14 22.3 °F /  -5.4 °C 18.7 °F /  -7.4 °C 29.76in /  1007.7hPa NNW 2.3mph /  3.7km/h 0.7mph /  1.1km/h 86% 0.02in /  0.51mm 143.10 W/m2
13:19 22.4 °F /  -5.3 °C 19.1 °F /  -7.2 °C 29.76in /  1007.7hPa NNE 1.2mph /  1.9km/h   87% 0.01in /  0.25mm 143.10 W/m2
13:24 22.4 °F /  -5.3 °C 19.1 °F /  -7.2 °C 29.76in /  1007.7hPa North 2.3mph /  3.7km/h 1.5mph /  2.4km/h 87% 0.01in /  0.25mm 143.10 W/m2
13:29 22.5 °F /  -5.3 °C 19.2 °F /  -7.1 °C 29.76in /  1007.7hPa NNW 3.5mph /  5.6km/h 1.2mph /  1.9km/h 87% 0.01in /  0.25mm 143.10 W/m2
13:34 22.6 °F /  -5.2 °C 19.0 °F /  -7.2 °C 29.75in /  1007.3hPa NNE 2.3mph /  3.7km/h 0.7mph /  1.1km/h 86% 0.01in /  0.25mm 143.10 W/m2
13:39 22.7 °F /  -5.2 °C 19.1 °F /  -7.2 °C 29.75in /  1007.3hPa NE 2.3mph /  3.7km/h 0.7mph /  1.1km/h 86% 0.01in /  0.25mm 143.10 W/m2
13:44 22.6 °F /  -5.2 °C 19.0 °F /  -7.2 °C 29.74in /  1007hPa NE 3.5mph /  5.6km/h 0.2mph /  0.3km/h 86% 0.01in /  0.25mm 143.10 W/m2
13:49 22.5 °F /  -5.3 °C 19.2 °F /  -7.1 °C 29.74in /  1007hPa NE 1.2mph /  1.9km/h   87% 0.01in /  0.25mm 143.10 W/m2
13:54 22.5 °F /  -5.3 °C 19.2 °F /  -7.1 °C 29.74in /  1007hPa NNW 2.3mph /  3.7km/h   87% 0.01in /  0.25mm 143.10 W/m2
13:59 22.7 °F /  -5.2 °C 19.4 °F /  -7 °C 29.74in /  1007hPa WNW 1.0mph /  1.6km/h 0.6mph /  1km/h 87% 0.01in /  0.25mm 143.10 W/m2
14:04 22.7 °F /  -5.2 °C 19.4 °F /  -7 °C 29.73in /  1006.7hPa NNE 5.0mph /  8km/h 1.8mph /  2.9km/h 87% 0.01in /  0.25mm 143.10 W/m2
14:09 22.7 °F /  -5.2 °C 19.4 °F /  -7 °C 29.73in /  1006.7hPa NNW 3.5mph /  5.6km/h 1.3mph /  2.1km/h 87% 0.00in /  0mm 143.10 W/m2
14:14 22.8 °F /  -5.1 °C 19.5 °F /  -6.9 °C 29.73in /  1006.7hPa WNW 3.5mph /  5.6km/h 1.4mph /  2.3km/h 87% 0.00in /  0mm 143.10 W/m2
14:19 22.9 °F /  -5.1 °C 19.6 °F /  -6.9 °C 29.73in /  1006.7hPa Calm   0.6mph /  1km/h 87% 0.00in /  0mm 143.10 W/m2
14:24 22.9 °F /  -5.1 °C 19.6 °F /  -6.9 °C 29.73in /  1006.7hPa West 2.3mph /  3.7km/h   87% 0.00in /  0mm 143.10 W/m2
14:29 23.0 °F /  -5 °C 19.7 °F /  -6.8 °C 29.73in /  1006.7hPa NNE 2.0mph /  3.2km/h 1.4mph /  2.3km/h 87% 0.00in /  0mm 143.10 W/m2
14:34 23.1 °F /  -4.9 °C 19.8 °F /  -6.8 °C 29.72in /  1006.3hPa Calm     87% 0.00in /  0mm 143.10 W/m2
14:39 23.1 °F /  -4.9 °C 19.8 °F /  -6.8 °C 29.72in /  1006.3hPa Calm     87% 0.00in /  0mm 143.10 W/m2
14:44 23.3 °F /  -4.8 °C 20.0 °F /  -6.7 °C 29.72in /  1006.3hPa NNE 1.2mph /  1.9km/h 1.6mph /  2.6km/h 87% 0.00in /  0mm 143.10 W/m2
14:49 23.4 °F /  -4.8 °C 20.1 °F /  -6.6 °C 29.72in /  1006.3hPa WSW 3.5mph /  5.6km/h 0.2mph /  0.3km/h 87% 0.00in /  0mm 143.10 W/m2
14:54 23.5 °F /  -4.7 °C 20.5 °F /  -6.4 °C 29.72in /  1006.3hPa WNW 1.2mph /  1.9km/h 0.3mph /  0.5km/h 88% 0.00in /  0mm 143.10 W/m2
14:59 23.6 °F /  -4.7 °C 20.6 °F /  -6.3 °C 29.72in /  1006.3hPa NE 2.3mph /  3.7km/h 0.3mph /  0.5km/h 88% 0.01in /  0.25mm 143.10 W/m2
15:04 23.8 °F /  -4.6 °C 20.8 °F /  -6.2 °C 29.72in /  1006.3hPa SSW 2.3mph /  3.7km/h 1.2mph /  1.9km/h 88% 0.01in /  0.25mm 143.10 W/m2
15:09 23.8 °F /  -4.6 °C 20.8 °F /  -6.2 °C 29.72in /  1006.3hPa NW 3.5mph /  5.6km/h 0.7mph /  1.1km/h 88% 0.01in /  0.25mm 143.10 W/m2
15:14 23.8 °F /  -4.6 °C 20.5 °F /  -6.4 °C 29.72in /  1006.3hPa NNE 3.5mph /  5.6km/h 1.4mph /  2.3km/h 87% 0.01in /  0.25mm 143.10 W/m2
15:19 23.8 °F /  -4.6 °C 20.5 °F /  -6.4 °C 29.72in /  1006.3hPa NE 1.2mph /  1.9km/h   87% 0.01in /  0.25mm 143.10 W/m2
15:24 23.7 °F /  -4.6 °C 20.4 °F /  -6.4 °C 29.72in /  1006.3hPa NNE 2.0mph /  3.2km/h 0.3mph /  0.5km/h 87% 0.01in /  0.25mm 143.10 W/m2
15:29 23.6 °F /  -4.7 °C 20.3 °F /  -6.5 °C 29.72in /  1006.3hPa NNE 3.0mph /  4.8km/h 2.6mph /  4.2km/h 87% 0.01in /  0.25mm 143.10 W/m2
15:34 23.5 °F /  -4.7 °C 20.2 °F /  -6.6 °C 29.72in /  1006.3hPa NNW 1.2mph /  1.9km/h 0.9mph /  1.4km/h 87% 0.01in /  0.25mm 143.10 W/m2
15:39 23.5 °F /  -4.7 °C 20.2 °F /  -6.6 °C 29.72in /  1006.3hPa NNE 1.2mph /  1.9km/h 0.2mph /  0.3km/h 87% 0.01in /  0.25mm 143.10 W/m2
15:44 23.5 °F /  -4.7 °C 20.5 °F /  -6.4 °C 29.72in /  1006.3hPa NW 6.9mph /  11.1km/h 1.3mph /  2.1km/h 88% 0.02in /  0.51mm 143.10 W/m2
15:49 23.5 °F /  -4.7 °C 20.5 °F /  -6.4 °C 29.73in /  1006.7hPa NE 3.5mph /  5.6km/h 0.8mph /  1.3km/h 88% 0.02in /  0.51mm 143.10 W/m2
15:54 23.4 °F /  -4.8 °C 20.4 °F /  -6.4 °C 29.73in /  1006.7hPa NW 4.6mph /  7.4km/h 2.5mph /  4km/h 88% 0.02in /  0.51mm 143.10 W/m2
15:59 23.3 °F /  -4.8 °C 20.3 °F /  -6.5 °C 29.73in /  1006.7hPa NNE 3.5mph /  5.6km/h   88% 0.01in /  0.25mm 143.10 W/m2
16:04 23.3 °F /  -4.8 °C 20.3 °F /  -6.5 °C 29.73in /  1006.7hPa SW 2.0mph /  3.2km/h 0.7mph /  1.1km/h 88% 0.01in /  0.25mm 143.10 W/m2
16:09 23.3 °F /  -4.8 °C 20.3 °F /  -6.5 °C 29.73in /  1006.7hPa WNW 2.3mph /  3.7km/h 1.1mph /  1.8km/h 88% 0.01in /  0.25mm 143.10 W/m2
16:14 23.2 °F /  -4.9 °C 20.4 °F /  -6.4 °C 29.73in /  1006.7hPa NE 2.3mph /  3.7km/h 0.2mph /  0.3km/h 89% 0.01in /  0.25mm 143.10 W/m2
16:19 23.2 °F /  -4.9 °C 20.4 °F /  -6.4 °C 29.73in /  1006.7hPa NNE 2.3mph /  3.7km/h 0.9mph /  1.4km/h 89% 0.01in /  0.25mm 143.10 W/m2
16:24 23.3 °F /  -4.8 °C 20.5 °F /  -6.4 °C 29.73in /  1006.7hPa West 1.0mph /  1.6km/h 0.1mph /  0.2km/h 89% 0.02in /  0.51mm 143.10 W/m2
16:29 23.3 °F /  -4.8 °C 20.5 °F /  -6.4 °C 29.73in /  1006.7hPa Calm     89% 0.02in /  0.51mm 143.10 W/m2
16:34 23.4 °F /  -4.8 °C 20.6 °F /  -6.3 °C 29.74in /  1007hPa WNW 3.5mph /  5.6km/h 2.0mph /  3.2km/h 89% 0.02in /  0.51mm 143.10 W/m2
16:39 23.4 °F /  -4.8 °C 20.6 °F /  -6.3 °C 29.74in /  1007hPa NNE 2.3mph /  3.7km/h 1.2mph /  1.9km/h 89% 0.02in /  0.51mm 143.10 W/m2
16:44 23.4 °F /  -4.8 °C 20.6 °F /  -6.3 °C 29.74in /  1007hPa NE 2.3mph /  3.7km/h   89% 0.01in /  0.25mm 143.10 W/m2
16:49 23.4 °F /  -4.8 °C 20.6 °F /  -6.3 °C 29.74in /  1007hPa WNW 2.0mph /  3.2km/h 0.6mph /  1km/h 89% 0.01in /  0.25mm 143.10 W/m2
16:54 23.4 °F /  -4.8 °C 20.6 °F /  -6.3 °C 29.75in /  1007.3hPa West 3.5mph /  5.6km/h 0.3mph /  0.5km/h 89% 0.01in /  0.25mm 143.10 W/m2
16:59 23.3 °F /  -4.8 °C 20.5 °F /  -6.4 °C 29.75in /  1007.3hPa West 3.0mph /  4.8km/h 0.1mph /  0.2km/h 89% 0.02in /  0.51mm 143.10 W/m2
17:04 23.4 °F /  -4.8 °C 20.6 °F /  -6.3 °C 29.75in /  1007.3hPa Calm     89% 0.02in /  0.51mm 143.10 W/m2
17:09 23.3 °F /  -4.8 °C 20.5 °F /  -6.4 °C 29.75in /  1007.3hPa WSW 3.5mph /  5.6km/h 2.2mph /  3.5km/h 89% 0.02in /  0.51mm 143.10 W/m2
17:14 23.3 °F /  -4.8 °C 20.5 °F /  -6.4 °C 29.75in /  1007.3hPa NNE 4.6mph /  7.4km/h 0.6mph /  1km/h 89% 0.02in /  0.51mm 143.10 W/m2
17:19 23.3 °F /  -4.8 °C 20.5 °F /  -6.4 °C 29.75in /  1007.3hPa North 3.5mph /  5.6km/h 1.6mph /  2.6km/h 89% 0.02in /  0.51mm 143.10 W/m2
17:24 23.3 °F /  -4.8 °C 20.8 °F /  -6.2 °C 29.75in /  1007.3hPa NW 1.2mph /  1.9km/h 0.1mph /  0.2km/h 90% 0.01in /  0.25mm 143.10 W/m2
17:29 23.3 °F /  -4.8 °C 20.8 °F /  -6.2 °C 29.76in /  1007.7hPa NE 3.5mph /  5.6km/h   90% 0.01in /  0.25mm 143.10 W/m2
17:34 23.3 °F /  -4.8 °C 20.8 °F /  -6.2 °C 29.75in /  1007.3hPa NNE 2.3mph /  3.7km/h 0.9mph /  1.4km/h 90% 0.01in /  0.25mm 143.10 W/m2
17:39 23.1 °F /  -4.9 °C 20.6 °F /  -6.3 °C 29.76in /  1007.7hPa ENE 6.9mph /  11.1km/h 3.5mph /  5.6km/h 90% 0.02in /  0.51mm 143.10 W/m2
17:44 22.7 °F /  -5.2 °C 20.2 °F /  -6.6 °C 29.76in /  1007.7hPa SW 6.9mph /  11.1km/h 2.5mph /  4km/h 90% 0.02in /  0.51mm 143.10 W/m2
17:49 22.3 °F /  -5.4 °C 19.6 °F /  -6.9 °C 29.76in /  1007.7hPa ENE 2.3mph /  3.7km/h 0.7mph /  1.1km/h 89% 0.02in /  0.51mm 143.10 W/m2
17:54 22.0 °F /  -5.6 °C 19.3 °F /  -7.1 °C 29.76in /  1007.7hPa WNW 3.5mph /  5.6km/h 0.7mph /  1.1km/h 89% 0.02in /  0.51mm 143.10 W/m2
17:59 21.8 °F /  -5.7 °C 19.1 °F /  -7.2 °C 29.76in /  1007.7hPa North 9.2mph /  14.8km/h 2.2mph /  3.5km/h 89% 0.02in /  0.51mm 143.10 W/m2
18:04 21.6 °F /  -5.8 °C 18.9 °F /  -7.3 °C 29.77in /  1008hPa ENE 3.5mph /  5.6km/h 0.6mph /  1km/h 89% 0.02in /  0.51mm 143.10 W/m2
18:09 21.3 °F /  -5.9 °C 18.6 °F /  -7.4 °C 29.77in /  1008hPa SSW 5.8mph /  9.3km/h 2.6mph /  4.2km/h 89% 0.02in /  0.51mm 143.10 W/m2
18:14 21.2 °F /  -6 °C 18.7 °F /  -7.4 °C 29.77in /  1008hPa NNE 1.0mph /  1.6km/h 1.0mph /  1.6km/h 90% 0.02in /  0.51mm 143.10 W/m2
18:19 21.0 °F /  -6.1 °C 18.5 °F /  -7.5 °C 29.77in /  1008hPa NNE 9.2mph /  14.8km/h 3.7mph /  6km/h 90% 0.02in /  0.51mm 143.10 W/m2
18:24 20.9 °F /  -6.2 °C 18.4 °F /  -7.6 °C 29.77in /  1008hPa NE 3.5mph /  5.6km/h 2.3mph /  3.7km/h 90% 0.02in /  0.51mm 143.10 W/m2
18:29 20.9 °F /  -6.2 °C 18.4 °F /  -7.6 °C 29.77in /  1008hPa NE 4.0mph /  6.4km/h 1.2mph /  1.9km/h 90% 0.02in /  0.51mm 143.10 W/m2
18:34 20.8 °F /  -6.2 °C 18.3 °F /  -7.6 °C 29.78in /  1008.4hPa NNE 5.8mph /  9.3km/h 2.7mph /  4.3km/h 90% 0.03in /  0.76mm 143.10 W/m2
18:39 20.7 °F /  -6.3 °C 18.0 °F /  -7.8 °C 29.78in /  1008.4hPa SSW 3.5mph /  5.6km/h 1.2mph /  1.9km/h 89% 0.02in /  0.51mm 143.10 W/m2
18:44 20.5 °F /  -6.4 °C 17.8 °F /  -7.9 °C 29.78in /  1008.4hPa West 3.5mph /  5.6km/h 2.4mph /  3.9km/h 89% 0.02in /  0.51mm 143.10 W/m2
18:49 20.4 °F /  -6.4 °C 17.7 °F /  -7.9 °C 29.78in /  1008.4hPa SW 3.5mph /  5.6km/h 1.3mph /  2.1km/h 89% 0.02in /  0.51mm 143.10 W/m2
18:54 20.2 °F /  -6.6 °C 17.5 °F /  -8.1 °C 29.78in /  1008.4hPa WNW 3.5mph /  5.6km/h 1.4mph /  2.3km/h 89% 0.02in /  0.51mm 143.10 W/m2
18:59 20.1 °F /  -6.6 °C 17.4 °F /  -8.1 °C 29.78in /  1008.4hPa SE 5.8mph /  9.3km/h 2.2mph /  3.5km/h 89% 0.01in /  0.25mm 143.10 W/m2
19:04 20.0 °F /  -6.7 °C 17.3 °F /  -8.2 °C 29.79in /  1008.7hPa East 9.2mph /  14.8km/h 3.2mph /  5.1km/h 89% 0.01in /  0.25mm 143.10 W/m2
19:09 19.9 °F /  -6.7 °C 17.2 °F /  -8.2 °C 29.79in /  1008.7hPa NNE 4.0mph /  6.4km/h 2.6mph /  4.2km/h 89% 0.01in /  0.25mm 143.10 W/m2
19:14 19.8 °F /  -6.8 °C 17.1 °F /  -8.3 °C 29.79in /  1008.7hPa NE 3.5mph /  5.6km/h 1.5mph /  2.4km/h 89% 0.01in /  0.25mm 143.10 W/m2
19:19 19.8 °F /  -6.8 °C 17.1 °F /  -8.3 °C 29.79in /  1008.7hPa SE 5.8mph /  9.3km/h 1.2mph /  1.9km/h 89% 0.02in /  0.51mm 143.10 W/m2
19:24 19.8 °F /  -6.8 °C 17.1 °F /  -8.3 °C 29.79in /  1008.7hPa NE 6.9mph /  11.1km/h 2.2mph /  3.5km/h 89% 0.02in /  0.51mm 143.10 W/m2
19:29 19.7 °F /  -6.8 °C 17.0 °F /  -8.3 °C 29.79in /  1008.7hPa NNE 2.3mph /  3.7km/h 1.5mph /  2.4km/h 89% 0.02in /  0.51mm 143.10 W/m2
19:34 19.7 °F /  -6.8 °C 17.0 °F /  -8.3 °C 29.79in /  1008.7hPa NNE 6.9mph /  11.1km/h 2.0mph /  3.2km/h 89% 0.01in /  0.25mm 143.10 W/m2
19:39 19.6 °F /  -6.9 °C 16.9 °F /  -8.4 °C 29.79in /  1008.7hPa North 9.2mph /  14.8km/h 3.8mph /  6.1km/h 89% 0.01in /  0.25mm 143.10 W/m2
19:44 19.5 °F /  -6.9 °C 16.5 °F /  -8.6 °C 29.79in /  1008.7hPa NE 4.6mph /  7.4km/h 2.7mph /  4.3km/h 88% 0.01in /  0.25mm 143.10 W/m2
19:49 19.5 °F /  -6.9 °C 16.5 °F /  -8.6 °C 29.79in /  1008.7hPa SW 3.5mph /  5.6km/h 0.7mph /  1.1km/h 88% 0.01in /  0.25mm 143.10 W/m2
19:54 19.5 °F /  -6.9 °C 16.5 °F /  -8.6 °C 29.79in /  1008.7hPa West 9.2mph /  14.8km/h 2.9mph /  4.7km/h 88% 0.01in /  0.25mm 143.10 W/m2
19:59 19.4 °F /  -7 °C 16.4 °F /  -8.7 °C 29.79in /  1008.7hPa NNE 5.8mph /  9.3km/h 0.5mph /  0.8km/h 88% 0.01in /  0.25mm 143.10 W/m2
20:04 19.4 °F /  -7 °C 16.4 °F /  -8.7 °C 29.80in /  1009hPa NE 5.8mph /  9.3km/h 1.6mph /  2.6km/h 88% 0.01in /  0.25mm 143.10 W/m2
20:09 19.3 °F /  -7.1 °C 16.3 °F /  -8.7 °C 29.80in /  1009hPa West 2.3mph /  3.7km/h 0.1mph /  0.2km/h 88% 0.01in /  0.25mm 143.10 W/m2
20:14 19.4 °F /  -7 °C 16.4 °F /  -8.7 °C 29.80in /  1009hPa North 6.9mph /  11.1km/h 2.0mph /  3.2km/h 88% 0.01in /  0.25mm 143.10 W/m2
20:19 19.3 °F /  -7.1 °C 16.3 °F /  -8.7 °C 29.80in /  1009hPa NNE 2.3mph /  3.7km/h 0.1mph /  0.2km/h 88% 0.00in /  0mm 143.10 W/m2
20:24 19.3 °F /  -7.1 °C 16.3 °F /  -8.7 °C 29.80in /  1009hPa NW 3.5mph /  5.6km/h 3.1mph /  5km/h 88% 0.00in /  0mm 143.10 W/m2
20:29 19.3 °F /  -7.1 °C 16.3 °F /  -8.7 °C 29.80in /  1009hPa NNW 3.5mph /  5.6km/h 1.4mph /  2.3km/h 88% 0.00in /  0mm 143.10 W/m2
20:34 19.3 °F /  -7.1 °C 16.3 °F /  -8.7 °C 29.80in /  1009hPa SW 6.9mph /  11.1km/h 3.7mph /  6km/h 88% 0.00in /  0mm 143.10 W/m2
20:39 19.3 °F /  -7.1 °C 16.1 °F /  -8.8 °C 29.80in /  1009hPa WNW 9.2mph /  14.8km/h 3.4mph /  5.5km/h 87% 0.00in /  0mm 143.10 W/m2
20:44 19.3 °F /  -7.1 °C 16.1 °F /  -8.8 °C 29.80in /  1009hPa West 3.5mph /  5.6km/h 2.5mph /  4km/h 87% 0.00in /  0mm 143.10 W/m2
20:49 19.3 °F /  -7.1 °C 16.1 °F /  -8.8 °C 29.80in /  1009hPa NE 4.6mph /  7.4km/h 2.9mph /  4.7km/h 87% 0.00in /  0mm 143.10 W/m2
20:54 19.2 °F /  -7.1 °C 16.0 °F /  -8.9 °C 29.80in /  1009hPa West 6.9mph /  11.1km/h 1.6mph /  2.6km/h 87% 0.00in /  0mm 143.10 W/m2
20:59 19.2 °F /  -7.1 °C 16.0 °F /  -8.9 °C 29.81in /  1009.4hPa NE 4.6mph /  7.4km/h 0.9mph /  1.4km/h 87% 0.00in /  0mm 143.10 W/m2
21:04 19.2 °F /  -7.1 °C 16.0 °F /  -8.9 °C 29.81in /  1009.4hPa WNW 6.9mph /  11.1km/h 2.7mph /  4.3km/h 87% 0.00in /  0mm 143.10 W/m2
21:09 19.2 °F /  -7.1 °C 16.0 °F /  -8.9 °C 29.82in /  1009.7hPa NNE 6.0mph /  9.7km/h 1.9mph /  3.1km/h 87% 0.00in /  0mm 143.10 W/m2
21:14 19.2 °F /  -7.1 °C 16.0 °F /  -8.9 °C 29.82in /  1009.7hPa NE 3.5mph /  5.6km/h 2.5mph /  4km/h 87% 0.00in /  0mm 143.10 W/m2
21:19 19.2 °F /  -7.1 °C 16.0 °F /  -8.9 °C 29.82in /  1009.7hPa NE 3.5mph /  5.6km/h 2.6mph /  4.2km/h 87% 0.00in /  0mm 143.10 W/m2
21:24 19.2 °F /  -7.1 °C 16.0 °F /  -8.9 °C 29.82in /  1009.7hPa West 3.5mph /  5.6km/h 3.7mph /  6km/h 87% 0.00in /  0mm 143.10 W/m2
21:29 19.2 °F /  -7.1 °C 16.0 °F /  -8.9 °C 29.82in /  1009.7hPa SW 3.5mph /  5.6km/h 0.1mph /  0.2km/h 87% 0.00in /  0mm 143.10 W/m2
21:34 19.2 °F /  -7.1 °C 16.0 °F /  -8.9 °C 29.82in /  1009.7hPa NE 4.6mph /  7.4km/h 1.0mph /  1.6km/h 87% 0.00in /  0mm 143.10 W/m2
21:39 19.2 °F /  -7.1 °C 16.0 °F /  -8.9 °C 29.82in /  1009.7hPa West 8.1mph /  13km/h 4.6mph /  7.4km/h 87% 0.00in /  0mm 143.10 W/m2
21:44 19.1 °F /  -7.2 °C 15.9 °F /  -8.9 °C 29.83in /  1010hPa North 4.6mph /  7.4km/h 1.6mph /  2.6km/h 87% 0.00in /  0mm 143.10 W/m2
21:49 19.1 °F /  -7.2 °C 15.9 °F /  -8.9 °C 29.83in /  1010hPa WSW 4.6mph /  7.4km/h 1.9mph /  3.1km/h 87% 0.00in /  0mm 143.10 W/m2
21:54 19.1 °F /  -7.2 °C 15.9 °F /  -8.9 °C 29.83in /  1010hPa SW 4.6mph /  7.4km/h 2.4mph /  3.9km/h 87% 0.00in /  0mm 143.10 W/m2
21:59 19.1 °F /  -7.2 °C 15.9 °F /  -8.9 °C 29.83in /  1010hPa SE 3.5mph /  5.6km/h 1.8mph /  2.9km/h 87% 0.00in /  0mm 143.10 W/m2
22:04 19.0 °F /  -7.2 °C 15.8 °F /  -9 °C 29.83in /  1010hPa WSW 3.5mph /  5.6km/h 1.5mph /  2.4km/h 87% 0.00in /  0mm 143.10 W/m2
22:09 19.0 °F /  -7.2 °C 15.8 °F /  -9 °C 29.83in /  1010hPa SW 2.3mph /  3.7km/h   87% 0.00in /  0mm 143.10 W/m2
22:14 19.0 °F /  -7.2 °C 15.8 °F /  -9 °C 29.83in /  1010hPa West 4.6mph /  7.4km/h 1.1mph /  1.8km/h 87% 0.00in /  0mm 143.10 W/m2
22:19 19.0 °F /  -7.2 °C 15.8 °F /  -9 °C 29.83in /  1010hPa WNW 4.0mph /  6.4km/h 2.7mph /  4.3km/h 87% 0.00in /  0mm 143.10 W/m2
22:24 19.0 °F /  -7.2 °C 15.8 °F /  -9 °C 29.83in /  1010hPa NW 5.8mph /  9.3km/h 2.0mph /  3.2km/h 87% 0.00in /  0mm 143.10 W/m2
22:29 19.0 °F /  -7.2 °C 15.8 °F /  -9 °C 29.83in /  1010hPa NE 3.5mph /  5.6km/h 1.1mph /  1.8km/h 87% 0.00in /  0mm 143.10 W/m2
22:34 19.0 °F /  -7.2 °C 15.8 °F /  -9 °C 29.83in /  1010hPa North 6.0mph /  9.7km/h 3.1mph /  5km/h 87% 0.00in /  0mm 143.10 W/m2
22:39 19.0 °F /  -7.2 °C 15.8 °F /  -9 °C 29.83in /  1010hPa NNE 4.0mph /  6.4km/h 2.4mph /  3.9km/h 87% 0.00in /  0mm 143.10 W/m2
22:44 18.9 °F /  -7.3 °C 15.7 °F /  -9.1 °C 29.83in /  1010hPa WNW 2.3mph /  3.7km/h 0.6mph /  1km/h 87% 0.00in /  0mm 143.10 W/m2
22:49 18.9 °F /  -7.3 °C 15.7 °F /  -9.1 °C 29.84in /  1010.4hPa West 6.0mph /  9.7km/h 0.9mph /  1.4km/h 87% 0.00in /  0mm 143.10 W/m2
22:54 18.9 °F /  -7.3 °C 15.9 °F /  -8.9 °C 29.84in /  1010.4hPa East 3.5mph /  5.6km/h 0.7mph /  1.1km/h 88% 0.00in /  0mm 143.10 W/m2
22:59 19.0 °F /  -7.2 °C 16.0 °F /  -8.9 °C 29.84in /  1010.4hPa NNE 3.5mph /  5.6km/h 0.4mph /  0.6km/h 88% 0.00in /  0mm 143.10 W/m2
23:04 19.0 °F /  -7.2 °C 16.0 °F /  -8.9 °C 29.84in /  1010.4hPa WNW 4.0mph /  6.4km/h 1.1mph /  1.8km/h 88% 0.00in /  0mm 143.10 W/m2
23:09 19.0 °F /  -7.2 °C 16.0 °F /  -8.9 °C 29.83in /  1010hPa SW 8.1mph /  13km/h 3.2mph /  5.1km/h 88% 0.00in /  0mm 143.10 W/m2
23:14 19.0 °F /  -7.2 °C 16.0 °F /  -8.9 °C 29.84in /  1010.4hPa NE 4.6mph /  7.4km/h 1.4mph /  2.3km/h 88% 0.00in /  0mm 143.10 W/m2
23:19 18.9 °F /  -7.3 °C 15.9 °F /  -8.9 °C 29.84in /  1010.4hPa WNW 3.0mph /  4.8km/h 1.6mph /  2.6km/h 88% 0.00in /  0mm 143.10 W/m2
23:24 19.0 °F /  -7.2 °C 15.8 °F /  -9 °C 29.84in /  1010.4hPa SW 4.6mph /  7.4km/h 2.7mph /  4.3km/h 87% 0.00in /  0mm 143.10 W/m2
23:29 18.9 °F /  -7.3 °C 15.7 °F /  -9.1 °C 29.84in /  1010.4hPa WSW 3.5mph /  5.6km/h 0.5mph /  0.8km/h 87% 0.00in /  0mm 143.10 W/m2
23:34 18.8 °F /  -7.3 °C 15.6 °F /  -9.1 °C 29.84in /  1010.4hPa NW 1.2mph /  1.9km/h 1.3mph /  2.1km/h 87% 0.00in /  0mm 143.10 W/m2
23:39 18.8 °F /  -7.3 °C 15.6 °F /  -9.1 °C 29.84in /  1010.4hPa WNW 4.6mph /  7.4km/h 1.5mph /  2.4km/h 87% 0.00in /  0mm 143.10 W/m2
23:44 18.7 °F /  -7.4 °C 15.5 °F /  -9.2 °C 29.84in /  1010.4hPa NNE 3.5mph /  5.6km/h   87% 0.00in /  0mm 143.10 W/m2
23:49 18.6 °F /  -7.4 °C 15.4 °F /  -9.2 °C 29.84in /  1010.4hPa NNW 5.0mph /  8km/h 1.5mph /  2.4km/h 87% 0.00in /  0mm 143.10 W/m2
23:54 18.6 °F /  -7.4 °C 15.4 °F /  -9.2 °C 29.84in /  1010.4hPa NE 1.2mph /  1.9km/h 0.3mph /  0.5km/h 87% 0.00in /  0mm 143.10 W/m2
23:59 18.5 °F /  -7.5 °C 15.3 °F /  -9.3 °C 29.84in /  1010.4hPa West 3.5mph /  5.6km/h 0.3mph /  0.5km/h 87% 0.00in /  0mm 143.10 W/m2
Winter, Wisconsin USA
Compliments of Weather Underground - 4 mb